Paris, Missouri
Current Conditions -  °F | °C
As of 4:54 AM on Sunday 23 Nov 2014 (Local Time) from KCOU Reporting Station
Light Rain Light Rain  
Wind Chill: 55°   Ceiling: 6000
Heat Index: 55°   Visibility: 10mi
Dew Point: 49°   Wind: 18mph
Humidity: 80%   Direction: 160°SSE
Pressure: 29.67"   Gusts: 25mph
Location:  39.48°N, 92°W
Report Text: KCOU 231054Z AUTO 16016G22KT 10SM -RA FEW037 BKN060 OVC100 13/09 A2967 RMK AO2 RAB34 SLP046 P0000 T01280094 $
Loading
Personal Weather Stations






























Interactive Weather Map New forecast layout! Learn more

10-Day Weather Forecast

Advertisements
Track Severe Weather on mobile